Details From LECO - A Coruna
To LPFL - FLORES
Flight Number -
Tags generated
Created
Modified
Stats Distance 1,053 nm / 1,950 km
Max Altitude 34,000 ft / 10,363 m
Waypoints 7
Social Downloads 0
Likes 0
Share VATSIM

Download

Looking for another format? Having issues loading an existing format? Contact us
Advertisement - Login to hide

Notes

Basic altitude profile: - Ascent Rate: 2500ft/min - Ascent Speed: 250kts - Cruise Altitude: 35000ft - Cruise Speed: 420kts - Descent Rate: 1500ft/min - Descent Speed: 250kts Options: - Use NATs: yes - Use PACOTS: yes - Use low airways: no - Use high airways: no

Route

LECO 4300N01000W 4300N01500W 4200N02000W 4100N02500W 4000N03000W LPFL

ID Type Via Altitude Latitude Longitude Leg Dist Tot Dist Heading (true) Name
O LECO APT - 0 ft / 0 m 43.30226˚ -8.37709˚ - 0 nm - A Coruna
4300N01000W LATLON - 26,200 ft / 7,986 m 43.00000˚ -10.00000˚ 73 nm 73 nm 256° / 255° -
4300N01500W LATLON - 34,000 ft / 10,363 m 43.00000˚ -15.00000˚ 219 nm 292 nm 272° / 268° -
4200N02000W LATLON - 34,000 ft / 10,363 m 42.00000˚ -20.00000˚ 229 nm 522 nm 257° / 253° -
4100N02500W LATLON - 34,000 ft / 10,363 m 41.00000˚ -25.00000˚ 232 nm 755 nm 257° / 253° -
4000N03000W LATLON - 12,200 ft / 3,719 m 40.00000˚ -30.00000˚ 236 nm 991 nm 257° / 254° -
O LPFL APT - 0 ft / 0 m 39.45534˚ -31.13140˚ 61 nm 1052 nm 238° / 238° FLORES

Altitude Profile

Advertisement - Login to hide

Weather


0- 5 10 15 20 25 30 35+ Temperature / ° C

Clouds and Precipitation
Forecast for 2018-05-27 06:00 UTC. Updated 3 hours ago

Ground ~20,000 ft ~40,000 ft Winds

LECO

Details ICAO LECO (LCG)
Name A Coruna
Region Spain
Timezone Europe/Madrid (UTC+2.0)
Stats Elevation 323 ft / 98 m (AMSL)
Location 43.302264° -8.377086°
Runways 1
Magnetic Variation 2.331° W

METAR

LECO 270830Z 31005KT 240V020 9999 FEW016 BKN038 15/12 Q1016 NOSIG

Decode

TAF

TAF LECO 270800Z 2709/2809 33008KT 9999 SCT015 BKN030 TX17/2714Z TN12/2806Z PROB30 TEMPO 2709/2712 3000 -RA BR BKN010 PROB40 TEMPO 2721/2809 1500 -RA BCFG BKN005 PROB30 TEMPO 2803/2808 0600 BCFG VV002

Decode

Departure Runways

ID Width Length Bearing (true) Bearing (mag) Surface Threshold Offset Overrun Length
04 148 ft / 45 m 6,371 ft / 1,942 m 30.94° 33.27° Asphalt 0 ft / 0 m 194 ft / 59 m
22 148 ft / 45 m 6,371 ft / 1,942 m 210.94° 213.27° Asphalt 0 ft / 0 m 203 ft / 62 m

LPFL

Details ICAO LPFL (FLW)
Name FLORES
Region Portugal
Timezone Atlantic/Azores (UTC+0.0)
Stats Elevation 112 ft / 34 m (AMSL)
Location 39.455336° -31.131395°
Runways 1
Magnetic Variation 10.377° W

METAR

LPFL 270830Z VRB02KT 9999 FEW005 SCT008TCU 20/16 Q1027

Decode

TAF

Not found

Destination Runways

ID Width Length Bearing (true) Bearing (mag) Surface Threshold Offset Overrun Length
18 98 ft / 30 m 4,618 ft / 1,408 m 167.86° 178.24° Asphalt 262 ft / 80 m 0 ft / 0 m
36 98 ft / 30 m 4,618 ft / 1,408 m 347.86° 358.24° Asphalt 197 ft / 60 m 0 ft / 0 m

Popular Alternatives